createdAt,value
2022-10-23T00:00:49.079Z,101467.53
2022-10-23T00:03:20.955Z,101465.84
2022-10-23T00:05:52.865Z,101473.41
2022-10-23T00:08:24.693Z,101470.03
2022-10-23T00:10:56.588Z,101475.66
2022-10-23T00:13:28.784Z,101472.50
2022-10-23T00:16:00.582Z,101479.84
2022-10-23T00:18:32.743Z,101479.41
2022-10-23T00:21:05.676Z,101491.34
2022-10-23T00:23:37.679Z,101487.16
2022-10-23T00:26:15.662Z,101492.09
2022-10-23T00:28:50.899Z,101489.78
2022-10-23T00:31:24.346Z,101495.66
2022-10-23T00:33:56.257Z,101487.84
2022-10-23T00:36:28.057Z,101489.97
2022-10-23T00:39:00.242Z,101480.09
2022-10-23T00:41:32.735Z,101490.16
2022-10-23T00:44:11.137Z,101484.88
2022-10-23T00:46:42.902Z,101483.19
2022-10-23T00:49:15.396Z,101487.81
2022-10-23T00:51:50.289Z,101488.66
2022-10-23T00:54:25.642Z,101479.84
2022-10-23T00:56:59.864Z,101485.31
2022-10-23T00:59:32.576Z,101487.38
2022-10-23T01:02:05.513Z,101482.78
2022-10-23T01:04:37.543Z,101480.22
2022-10-23T01:07:25.071Z,101479.19
2022-10-23T01:10:33.162Z,101484.66
2022-10-23T01:13:12.907Z,101480.22
2022-10-23T01:16:00.761Z,101481.91
2022-10-23T01:18:38.976Z,101479.38
2022-10-23T01:21:29.215Z,101485.69
2022-10-23T01:24:19.712Z,101476.03
2022-10-23T01:26:59.134Z,101469.09
2022-10-23T01:29:41.446Z,101470.16
2022-10-23T01:32:15.401Z,101473.91
2022-10-23T01:34:52.021Z,101475.59
2022-10-23T01:37:41.692Z,101481.06
2022-10-23T01:40:27.538Z,101478.31
2022-10-23T01:43:05.339Z,101477.25
2022-10-23T01:45:45.970Z,101473.50
2022-10-23T01:48:27.851Z,101469.94
2022-10-23T01:51:03.871Z,101467.44
2022-10-23T01:53:41.267Z,101470.16
2022-10-23T01:56:27.313Z,101470.16
2022-10-23T01:59:03.224Z,101464.06
2022-10-23T02:01:42.107Z,101464.06
2022-10-23T02:04:19.156Z,101465.75
2022-10-23T02:06:51.020Z,101457.75
2022-10-23T02:09:23.027Z,101470.53
2022-10-23T02:12:29.385Z,101464.47
2022-10-23T02:15:25.683Z,101460.47
2022-10-23T02:18:05.693Z,101458.59
2022-10-23T02:20:47.943Z,101455.03
2022-10-23T02:23:36.014Z,101450.63
2022-10-23T02:26:31.225Z,101449.78
2022-10-23T02:29:09.431Z,101449.78
2022-10-23T02:31:43.666Z,101455.44
2022-10-23T02:34:15.610Z,101457.13
2022-10-23T02:36:47.499Z,101460.69
2022-10-23T02:39:22.581Z,101456.28
2022-10-23T02:41:54.642Z,101457.94
2022-10-23T02:44:44.675Z,101451.69
2022-10-23T02:47:25.070Z,101459.03
2022-10-23T02:50:08.186Z,101464.84
2022-10-23T02:52:50.791Z,101449.94
2022-10-23T02:55:41.705Z,101450.34
2022-10-23T02:58:19.224Z,101450.72
2022-10-23T03:01:06.087Z,101453.47
2022-10-23T03:03:41.990Z,101449.03
2022-10-23T03:06:13.882Z,101461.00
2022-10-23T03:08:52.957Z,101462.03
2022-10-23T03:11:24.847Z,101444.84
2022-10-23T03:13:56.866Z,101445.50
2022-10-23T03:16:28.740Z,101443.59
2022-10-23T03:19:00.679Z,101436.50
2022-10-23T03:21:32.606Z,101440.25
2022-10-23T03:24:04.536Z,101436.88
2022-10-23T03:26:42.425Z,101442.53
2022-10-23T03:29:15.042Z,101449.00
2022-10-23T03:31:50.696Z,101447.31
2022-10-23T03:34:23.306Z,101457.38
2022-10-23T03:36:57.934Z,101444.16
2022-10-23T03:39:29.894Z,101450.84
2022-10-23T03:42:02.187Z,101441.81
2022-10-23T03:44:35.437Z,101444.09
2022-10-23T03:47:10.078Z,101443.66
2022-10-23T03:49:41.956Z,101439.66
2022-10-23T03:52:13.959Z,101441.72
2022-10-23T03:54:45.949Z,101442.13
2022-10-23T03:57:17.823Z,101452.34
2022-10-23T03:59:50.016Z,101441.66
2022-10-23T04:02:22.832Z,101442.91
2022-10-23T04:04:57.534Z,101438.31
2022-10-23T04:07:29.552Z,101444.13
2022-10-23T04:10:05.198Z,101439.09
2022-10-23T04:12:38.142Z,101439.44
2022-10-23T04:15:11.207Z,101446.81
2022-10-23T04:17:45.431Z,101437.97
2022-10-23T04:20:18.215Z,101441.09
2022-10-23T04:22:50.009Z,101443.34
2022-10-23T04:25:22.949Z,101438.50
2022-10-23T04:27:55.532Z,101440.59
2022-10-23T04:30:27.647Z,101433.81
2022-10-23T04:33:00.554Z,101420.44
2022-10-23T04:35:34.255Z,101416.19
2022-10-23T04:38:06.261Z,101426.44
2022-10-23T04:40:38.574Z,101415.75
2022-10-23T04:43:10.586Z,101413.22
2022-10-23T04:45:44.724Z,101409.63
2022-10-23T04:48:16.801Z,101406.28
2022-10-23T04:51:18.053Z,101413.78
2022-10-23T04:54:04.155Z,101411.47
2022-10-23T04:56:47.696Z,101405.59
2022-10-23T04:59:22.813Z,101417.69
2022-10-23T05:01:55.134Z,101417.88
2022-10-23T05:04:28.745Z,101422.44
2022-10-23T05:07:36.492Z,101413.00
2022-10-23T05:10:18.683Z,101415.09
2022-10-23T05:13:00.583Z,101403.94
2022-10-23T05:15:33.579Z,101413.72
2022-10-23T05:18:13.042Z,101410.34
2022-10-23T05:20:45.722Z,101412.44
2022-10-23T05:23:19.818Z,101409.88
2022-10-23T05:26:03.219Z,101401.91
2022-10-23T05:28:36.573Z,101396.88
2022-10-23T05:31:09.618Z,101410.66
2022-10-23T05:33:44.275Z,101414.22
2022-10-23T05:36:16.912Z,101406.44
2022-10-23T05:38:49.947Z,101398.28
2022-10-23T05:41:23.333Z,101406.44
2022-10-23T05:43:55.392Z,101407.47
2022-10-23T05:46:47.485Z,101396.97
2022-10-23T05:49:50.788Z,101401.94
2022-10-23T05:52:25.212Z,101411.34
2022-10-23T05:55:10.527Z,101407.31
2022-10-23T05:57:53.917Z,101413.13
2022-10-23T06:00:37.970Z,101417.88
2022-10-23T06:03:29.868Z,101417.25
2022-10-23T06:06:02.299Z,101413.88
2022-10-23T06:08:45.431Z,101418.84
2022-10-23T06:11:18.133Z,101414.00
2022-10-23T06:14:00.956Z,101412.03
2022-10-23T06:16:34.287Z,101413.44
2022-10-23T06:19:06.317Z,101418.41
2022-10-23T06:21:39.421Z,101422.16
2022-10-23T06:24:11.727Z,101429.63
2022-10-23T06:26:55.685Z,101414.56
2022-10-23T06:29:39.890Z,101419.16
2022-10-23T06:32:11.934Z,101416.78
2022-10-23T06:34:45.231Z,101405.69
2022-10-23T06:37:18.091Z,101409.44
2022-10-23T06:40:16.337Z,101413.00
2022-10-23T06:42:59.652Z,101412.31
2022-10-23T06:46:02.838Z,101411.00
2022-10-23T06:49:03.804Z,101403.91
2022-10-23T06:51:39.288Z,101411.00
2022-10-23T06:54:15.374Z,101415.78
2022-10-23T06:56:56.158Z,101409.31
2022-10-23T06:59:36.697Z,101398.28
2022-10-23T07:02:09.381Z,101398.75
2022-10-23T07:04:41.381Z,101402.97
2022-10-23T07:07:19.585Z,101400.72
2022-10-23T07:09:53.653Z,101399.03
2022-10-23T07:12:30.041Z,101406.16
2022-10-23T07:15:21.839Z,101396.31
2022-10-23T07:17:53.902Z,101398.19
2022-10-23T07:20:27.325Z,101397.34
2022-10-23T07:22:59.317Z,101404.84
2022-10-23T07:25:35.019Z,101412.31
2022-10-23T07:28:07.405Z,101417.75
2022-10-23T07:30:40.989Z,101423.34
2022-10-23T07:33:13.815Z,101419.78
2022-10-23T07:35:53.694Z,101419.63
2022-10-23T07:38:31.519Z,101419.44
2022-10-23T07:41:03.710Z,101419.06
2022-10-23T07:43:37.008Z,101425.44
2022-10-23T07:46:09.953Z,101420.63
2022-10-23T07:48:45.263Z,101421.97
2022-10-23T07:51:17.702Z,101424.31
2022-10-23T07:53:52.395Z,101421.88
2022-10-23T07:56:40.169Z,101428.41
2022-10-23T07:59:20.443Z,101425.13
2022-10-23T08:01:58.278Z,101414.53
2022-10-23T08:04:36.754Z,101414.63
2022-10-23T08:07:28.353Z,101400.09
2022-10-23T08:10:03.010Z,101399.50
2022-10-23T08:12:37.552Z,101395.19
2022-10-23T08:15:10.372Z,101401.56
2022-10-23T08:17:57.249Z,101403.47
2022-10-23T08:20:43.981Z,101389.97
2022-10-23T08:23:18.405Z,101393.78
2022-10-23T08:25:57.187Z,101391.78
2022-10-23T08:28:29.233Z,101393.13
2022-10-23T08:31:11.549Z,101387.22
2022-10-23T08:33:44.583Z,101394.63
2022-10-23T08:36:22.734Z,101388.84
2022-10-23T08:38:56.328Z,101387.69
2022-10-23T08:41:31.823Z,101391.47
2022-10-23T08:44:36.814Z,101386.94
2022-10-23T08:47:13.408Z,101389.06
2022-10-23T08:49:49.875Z,101386.59
2022-10-23T08:52:32.287Z,101377.63
2022-10-23T08:55:16.812Z,101373.69
2022-10-23T08:58:06.090Z,101371.88
2022-10-23T09:00:38.049Z,101370.84
2022-10-23T09:03:12.261Z,101366.28
2022-10-23T09:06:07.530Z,101371.75
2022-10-23T09:09:02.305Z,101362.16
2022-10-23T09:11:49.391Z,101357.97
2022-10-23T09:14:21.808Z,101358.44
2022-10-23T09:16:57.305Z,101360.72
2022-10-23T09:19:31.260Z,101352.38
2022-10-23T09:22:03.209Z,101354.91
2022-10-23T09:24:36.418Z,101350.06
2022-10-23T09:27:16.898Z,101345.91
2022-10-23T09:29:51.665Z,101347.19
2022-10-23T09:32:34.594Z,101353.06
2022-10-23T09:35:07.048Z,101356.41
2022-10-23T09:37:46.175Z,101360.41
2022-10-23T09:40:40.973Z,101357.25
2022-10-23T09:43:17.654Z,101360.22
2022-10-23T09:45:59.568Z,101359.16
2022-10-23T09:48:31.942Z,101362.75
2022-10-23T09:51:24.251Z,101358.97
2022-10-23T09:53:59.790Z,101361.94
2022-10-23T09:56:39.474Z,101365.06
2022-10-23T09:59:11.281Z,101362.56
2022-10-23T10:01:50.379Z,101363.44
2022-10-23T10:04:58.329Z,101359.47
2022-10-23T10:07:33.339Z,101356.94
2022-10-23T10:10:15.111Z,101352.31
2022-10-23T10:12:55.588Z,101338.88
2022-10-23T10:15:36.487Z,101337.00
2022-10-23T10:18:15.921Z,101337.84
2022-10-23T10:20:53.830Z,101336.16
2022-10-23T10:23:44.218Z,101333.03
2022-10-23T10:26:44.464Z,101323.19
2022-10-23T10:29:42.181Z,101328.22
2022-10-23T10:32:32.535Z,101325.69
2022-10-23T10:35:13.216Z,101313.47
2022-10-23T10:38:03.622Z,101308.22
2022-10-23T10:40:40.158Z,101299.41
2022-10-23T10:43:27.599Z,101292.22
2022-10-23T10:46:17.593Z,101284.47
2022-10-23T10:48:53.005Z,101274.59
2022-10-23T10:52:17.866Z,101283.78
2022-10-23T10:55:13.672Z,101289.44
2022-10-23T10:57:48.727Z,101287.13
2022-10-23T11:00:22.581Z,101282.06
2022-10-23T11:03:37.452Z,101279.31
2022-10-23T11:06:21.050Z,101273.19
2022-10-23T11:08:58.101Z,101263.50
2022-10-23T11:11:38.321Z,101260.50
2022-10-23T11:14:18.642Z,101262.16
2022-10-23T11:16:59.905Z,101254.53
2022-10-23T11:20:02.934Z,101244.84
2022-10-23T11:22:44.109Z,101238.00
2022-10-23T11:25:50.459Z,101244.16
2022-10-23T11:28:50.444Z,101238.22
2022-10-23T11:31:34.168Z,101227.88
2022-10-23T11:34:44.904Z,101228.66
2022-10-23T11:37:21.441Z,101229.06
2022-10-23T11:40:08.222Z,101215.19
2022-10-23T11:42:39.989Z,101209.00
2022-10-23T11:45:31.565Z,101210.59
2022-10-23T11:48:23.653Z,101199.97
2022-10-23T11:50:56.480Z,101197.00
2022-10-23T11:53:32.794Z,101196.16
2022-10-23T11:56:12.498Z,101187.22
2022-10-23T11:58:49.587Z,101188.06
2022-10-23T12:01:31.427Z,101168.38
2022-10-23T12:06:52.745Z,101164.72
2022-10-23T12:10:20.509Z,101172.66
2022-10-23T12:13:00.281Z,101175.50
2022-10-23T12:15:34.874Z,101157.66
2022-10-23T12:18:15.104Z,101155.94
2022-10-23T12:21:13.555Z,101148.69
2022-10-23T12:24:12.754Z,101139.03
2022-10-23T12:26:59.662Z,101137.31
2022-10-23T12:29:59.471Z,101130.81
2022-10-23T12:32:37.198Z,101126.09
2022-10-23T12:35:18.315Z,101117.50
2022-10-23T12:38:10.266Z,101105.31
2022-10-23T12:40:53.561Z,101101.41
2022-10-23T12:43:25.491Z,101093.91
2022-10-23T12:46:05.682Z,101100.72
2022-10-23T12:48:48.040Z,101084.16
2022-10-23T12:51:31.109Z,101083.78
2022-10-23T12:54:03.849Z,101069.38
2022-10-23T12:56:36.938Z,101064.09
2022-10-23T12:59:17.494Z,101064.19
2022-10-23T13:01:52.765Z,101053.56
2022-10-23T13:04:30.688Z,101043.78
2022-10-23T13:07:03.893Z,101036.00
2022-10-23T13:09:41.442Z,101039.72
2022-10-23T13:12:24.354Z,101040.88
2022-10-23T13:15:12.429Z,101030.84
2022-10-23T13:17:45.668Z,101019.75
2022-10-23T13:20:17.797Z,101018.56
2022-10-23T13:22:59.451Z,101018.69
2022-10-23T13:25:34.977Z,101011.63
2022-10-23T13:28:21.375Z,101011.97
2022-10-23T13:31:12.327Z,101009.69
2022-10-23T13:33:46.276Z,100999.56
2022-10-23T13:36:18.709Z,101002.06
2022-10-23T13:39:02.358Z,100987.69
2022-10-23T13:41:41.131Z,100991.25
2022-10-23T13:44:15.539Z,100975.88
2022-10-23T13:46:48.463Z,100972.09
2022-10-23T13:49:20.522Z,100965.41
2022-10-23T13:51:55.570Z,100961.22
2022-10-23T13:54:29.099Z,100960.38
2022-10-23T13:57:01.243Z,100958.75
2022-10-23T13:59:33.258Z,100953.25
2022-10-23T14:02:17.764Z,100960.88
2022-10-23T14:04:50.837Z,100952.88
2022-10-23T14:07:22.675Z,100962.41
2022-10-23T14:09:54.698Z,100960.72
2022-10-23T14:12:26.502Z,100957.38
2022-10-23T14:14:58.440Z,100956.19
2022-10-23T14:17:30.325Z,100962.72
2022-10-23T14:20:04.131Z,100956.84
2022-10-23T14:22:38.011Z,100947.22
2022-10-23T14:25:09.983Z,100937.31
2022-10-23T14:27:41.903Z,100931.22
2022-10-23T14:30:14.216Z,100935.88
2022-10-23T14:32:46.493Z,100956.94
2022-10-23T14:35:18.857Z,100946.69
2022-10-23T14:37:50.753Z,100943.13
2022-10-23T14:40:22.729Z,100934.31
2022-10-23T14:42:54.633Z,100929.28
2022-10-23T14:45:26.637Z,100936.31
2022-10-23T14:48:00.913Z,100931.31
2022-10-23T14:50:35.368Z,100924.63
2022-10-23T14:53:07.298Z,100918.53
2022-10-23T14:55:39.631Z,100913.53
2022-10-23T14:58:11.550Z,100914.59
2022-10-23T15:00:43.400Z,100921.13
2022-10-23T15:03:15.795Z,100915.31
2022-10-23T15:05:47.753Z,100907.78
2022-10-23T15:08:20.677Z,100908.25
2022-10-23T15:10:52.645Z,100920.72
2022-10-23T15:13:24.565Z,100927.72
2022-10-23T15:16:10.697Z,100905.06
2022-10-23T15:18:42.811Z,100893.56
2022-10-23T15:21:15.477Z,100884.94
2022-10-23T15:23:48.527Z,100892.78
2022-10-23T15:26:23.091Z,100870.06
2022-10-23T15:28:59.646Z,100869.94
2022-10-23T15:31:43.515Z,100873.97
2022-10-23T15:34:21.774Z,100859.94
2022-10-23T15:36:55.281Z,100848.59
2022-10-23T15:39:29.422Z,100854.53
2022-10-23T15:42:04.198Z,100850.34
2022-10-23T15:44:36.471Z,100851.19
2022-10-23T15:47:08.351Z,100863.41
2022-10-23T15:49:40.324Z,100859.00
2022-10-23T15:52:12.218Z,100862.78
2022-10-23T15:54:44.251Z,100856.47
2022-10-23T15:57:16.289Z,100855.91
2022-10-23T15:59:48.200Z,100867.25
2022-10-23T16:02:20.915Z,100852.75
2022-10-23T16:04:52.999Z,100832.81
2022-10-23T16:07:24.867Z,100808.22
2022-10-23T16:09:57.149Z,100789.31
2022-10-23T16:12:29.101Z,100773.13
2022-10-23T16:15:01.015Z,100767.66
2022-10-23T16:17:32.830Z,100771.47
2022-10-23T16:20:05.150Z,100782.66
2022-10-23T16:22:40.125Z,100777.41
2022-10-23T16:25:14.994Z,100780.34
2022-10-23T16:27:47.357Z,100766.94
2022-10-23T16:30:21.205Z,100761.47
2022-10-23T16:32:54.807Z,100767.75
2022-10-23T16:35:26.713Z,100759.81
2022-10-23T16:38:10.886Z,100774.53
2022-10-23T16:40:42.845Z,100773.47
2022-10-23T16:43:35.096Z,100778.09
2022-10-23T16:46:35.406Z,100790.91
2022-10-23T16:49:08.806Z,100789.25
2022-10-23T16:51:40.587Z,100771.19
2022-10-23T16:54:14.487Z,100773.91
2022-10-23T16:56:47.299Z,100768.44
2022-10-23T16:59:19.248Z,100767.84
2022-10-23T17:01:51.292Z,100766.19
2022-10-23T17:04:23.301Z,100764.50
2022-10-23T17:06:55.301Z,100757.38
2022-10-23T17:09:31.179Z,100749.66
2022-10-23T17:12:03.290Z,100754.50
2022-10-23T17:14:35.533Z,100749.88
2022-10-23T17:17:09.735Z,100747.59
2022-10-23T17:19:46.354Z,100739.63
2022-10-23T17:22:18.730Z,100739.84
2022-10-23T17:24:53.900Z,100737.38
2022-10-23T17:27:26.303Z,100738.44
2022-10-23T17:29:58.192Z,100746.63
2022-10-23T17:32:30.120Z,100730.22
2022-10-23T17:35:05.092Z,100718.47
2022-10-23T17:37:37.015Z,100719.78
2022-10-23T17:40:09.338Z,100712.63
2022-10-23T17:42:41.757Z,100713.09
2022-10-23T17:45:13.705Z,100695.50
2022-10-23T17:47:45.574Z,100687.78
2022-10-23T17:50:17.692Z,100687.78
2022-10-23T17:52:49.643Z,100687.16
2022-10-23T17:55:21.887Z,100678.97
2022-10-23T17:57:53.755Z,100675.41
2022-10-23T18:00:25.746Z,100674.13
2022-10-23T18:02:57.557Z,100676.00
2022-10-23T18:05:31.958Z,100677.06
2022-10-23T18:08:03.806Z,100671.59
2022-10-23T18:10:36.149Z,100665.31
2022-10-23T18:13:07.953Z,100665.31
2022-10-23T18:15:39.912Z,100686.09
2022-10-23T18:18:11.901Z,100688.81
2022-10-23T18:20:44.827Z,100698.06
2022-10-23T18:23:16.683Z,100692.63
2022-10-23T18:25:48.710Z,100694.28
2022-10-23T18:28:20.836Z,100694.28
2022-10-23T18:30:56.084Z,100697.25
2022-10-23T18:33:29.092Z,100684.69
2022-10-23T18:36:00.917Z,100681.09
2022-10-23T18:38:32.816Z,100680.50
2022-10-23T18:41:04.694Z,100678.81
2022-10-23T18:43:43.752Z,100677.13
2022-10-23T18:46:16.403Z,100682.03
2022-10-23T18:48:50.743Z,100697.56
2022-10-23T18:51:28.571Z,100696.50
2022-10-23T18:54:07.527Z,100698.84
2022-10-23T18:56:39.838Z,100707.03
2022-10-23T18:59:14.550Z,100712.50
2022-10-23T19:01:46.530Z,100685.19
2022-10-23T19:04:19.035Z,100674.28
2022-10-23T19:06:51.047Z,100678.09
2022-10-23T19:09:23.010Z,100681.88
2022-10-23T19:11:54.943Z,100687.34
2022-10-23T19:14:28.692Z,100685.19
2022-10-23T19:17:05.324Z,100696.09
2022-10-23T19:19:43.436Z,100689.00
2022-10-23T19:22:16.086Z,100690.66
2022-10-23T19:24:57.081Z,100683.28
2022-10-23T19:27:30.019Z,100687.69
2022-10-23T19:30:03.440Z,100683.06
2022-10-23T19:32:35.395Z,100686.88
2022-10-23T19:35:08.394Z,100683.06
2022-10-23T19:37:40.614Z,100675.94
2022-10-23T19:40:14.164Z,100676.78
2022-10-23T19:42:46.088Z,100688.53
2022-10-23T19:45:18.103Z,100697.78
2022-10-23T19:47:50.036Z,100696.72
2022-10-23T19:50:22.230Z,100715.00
2022-10-23T19:52:54.100Z,100714.78
2022-10-23T19:55:26.084Z,100713.72
2022-10-23T19:57:57.961Z,100716.22
2022-10-23T20:00:29.842Z,100710.53
2022-10-23T20:03:01.763Z,100710.53
2022-10-23T20:05:33.608Z,100702.34
2022-10-23T20:08:05.574Z,100697.50
2022-10-23T20:10:46.534Z,100702.97
2022-10-23T20:13:20.231Z,100701.28
2022-10-23T20:15:52.499Z,100704.00
2022-10-23T20:18:25.932Z,100701.88
2022-10-23T20:21:01.425Z,100698.91
2022-10-23T20:23:33.302Z,100690.50
2022-10-23T20:26:10.448Z,100687.16
2022-10-23T20:28:46.831Z,100680.63
2022-10-23T20:31:20.085Z,100686.09
2022-10-23T20:33:52.433Z,100676.84
2022-10-23T20:36:26.460Z,100668.66
2022-10-23T20:39:01.103Z,100672.22
2022-10-23T20:41:36.822Z,100662.34
2022-10-23T20:44:11.369Z,100640.72
2022-10-23T20:46:43.911Z,100600.25
2022-10-23T20:49:16.194Z,100532.28
2022-10-23T20:51:55.156Z,100518.50
2022-10-23T20:54:28.842Z,100603.25
2022-10-23T20:57:01.070Z,100667.16
2022-10-23T20:59:34.123Z,100626.91
2022-10-23T21:02:06.320Z,100604.72
2022-10-23T21:04:38.372Z,100618.34
2022-10-23T21:07:11.414Z,100607.19
2022-10-23T21:09:43.753Z,100603.19
2022-10-23T21:12:15.728Z,100617.19
2022-10-23T21:14:47.601Z,100608.31
2022-10-23T21:17:19.458Z,100598.63
2022-10-23T21:19:51.459Z,100587.28
2022-10-23T21:22:23.273Z,100581.56
2022-10-23T21:24:56.983Z,100591.00
2022-10-23T21:27:29.039Z,100570.00
2022-10-23T21:30:00.972Z,100567.25
2022-10-23T21:32:33.071Z,100569.50
2022-10-23T21:35:05.336Z,100556.69
2022-10-23T21:37:37.194Z,100525.38
2022-10-23T21:40:09.779Z,100498.91
2022-10-23T21:42:41.631Z,100464.47
2022-10-23T21:45:13.560Z,100468.28
2022-10-23T21:47:45.665Z,100459.50
2022-10-23T21:50:17.788Z,100457.81
2022-10-23T21:52:52.602Z,100452.16
2022-10-23T21:55:28.587Z,100454.66
2022-10-23T21:58:00.465Z,100449.69
2022-10-23T22:00:32.345Z,100447.66
2022-10-23T22:03:04.212Z,100437.47
2022-10-23T22:05:36.079Z,100469.53
2022-10-23T22:08:08.076Z,100476.56
2022-10-23T22:10:39.952Z,100483.56
2022-10-23T22:13:11.755Z,100471.34
2022-10-23T22:18:16.327Z,100506.50
2022-10-23T22:20:48.182Z,100515.28
2022-10-23T22:23:20.019Z,100479.91
2022-10-23T22:25:51.904Z,100494.75
2022-10-23T22:28:23.910Z,100484.38
2022-10-23T22:30:55.878Z,100494.88
2022-10-23T22:33:29.048Z,100495.44
2022-10-23T22:36:02.247Z,100501.50
2022-10-23T22:38:34.152Z,100504.25
2022-10-23T22:41:07.186Z,100499.84
2022-10-23T22:43:39.293Z,100510.78
2022-10-23T22:46:13.174Z,100500.06
2022-10-23T22:48:45.628Z,100516.13
2022-10-23T22:51:19.322Z,100510.06
2022-10-23T22:53:51.142Z,100524.19
2022-10-23T22:56:25.757Z,100532.88
2022-10-23T22:58:57.882Z,100551.41
2022-10-23T23:01:33.167Z,100557.34
2022-10-23T23:04:19.483Z,100556.72
2022-10-23T23:06:57.008Z,100570.88
2022-10-23T23:09:29.135Z,100579.28
2022-10-23T23:12:00.962Z,100575.59
2022-10-23T23:14:32.966Z,100577.34
2022-10-23T23:17:05.923Z,100577.00
2022-10-23T23:19:38.002Z,100573.06
2022-10-23T23:22:09.852Z,100584.31
2022-10-23T23:24:41.839Z,100594.03
2022-10-23T23:27:13.682Z,100592.00
2022-10-23T23:29:45.503Z,100593.75
2022-10-23T23:32:17.382Z,100585.41
2022-10-23T23:34:49.297Z,100585.88
2022-10-23T23:37:21.479Z,100587.41
2022-10-23T23:39:53.362Z,100588.94
2022-10-23T23:42:25.247Z,100596.53
2022-10-23T23:45:02.922Z,100612.50
2022-10-23T23:47:45.730Z,100608.31
2022-10-23T23:50:17.870Z,100602.50
2022-10-23T23:52:49.866Z,100599.97
2022-10-23T23:55:21.814Z,100584.66
2022-10-23T23:57:53.697Z,100595.00
